createdAt,value
2019-04-30T00:01:31.804Z,63.16
2019-04-30T00:04:07.503Z,63.10
2019-04-30T00:06:39.643Z,62.84
2019-04-30T00:09:15.107Z,62.50
2019-04-30T00:11:50.700Z,62.39
2019-04-30T00:14:20.385Z,62.22
2019-04-30T00:16:52.065Z,62.65
2019-04-30T00:19:23.525Z,62.87
2019-04-30T00:22:00.072Z,63.05
2019-04-30T00:24:27.523Z,62.54
2019-04-30T00:26:59.259Z,62.44
2019-04-30T00:29:31.175Z,62.65
2019-04-30T00:32:04.600Z,62.74
2019-04-30T00:34:39.360Z,63.11
2019-04-30T00:37:13.968Z,62.52
2019-04-30T00:39:51.174Z,62.84
2019-04-30T00:42:24.145Z,62.85
2019-04-30T00:44:59.754Z,62.67
2019-04-30T00:47:32.435Z,63.09
2019-04-30T00:50:04.976Z,63.30
2019-04-30T00:52:37.459Z,63.17
2019-04-30T00:55:09.607Z,63.07
2019-04-30T00:57:43.565Z,62.80
2019-04-30T01:00:17.782Z,62.37
2019-04-30T01:03:09.321Z,62.18
2019-04-30T01:05:46.501Z,61.88
2019-04-30T01:08:15.415Z,61.46
2019-04-30T01:10:46.681Z,61.67
2019-04-30T01:13:19.181Z,61.40
2019-04-30T01:15:52.502Z,61.34
2019-04-30T01:18:28.539Z,61.21
2019-04-30T01:20:58.794Z,61.18
2019-04-30T01:23:30.438Z,61.32
2019-04-30T01:26:02.429Z,61.65
2019-04-30T01:28:34.181Z,61.80
2019-04-30T01:31:05.733Z,62.05
2019-04-30T01:33:39.034Z,62.20
2019-04-30T01:36:13.353Z,61.81
2019-04-30T01:38:48.192Z,62.27
2019-04-30T01:41:21.999Z,62.31
2019-04-30T01:43:51.657Z,62.23
2019-04-30T01:46:23.173Z,62.37
2019-04-30T01:48:54.787Z,62.82
2019-04-30T01:51:28.257Z,62.87
2019-04-30T01:54:00.491Z,62.65
2019-04-30T01:57:06.561Z,62.46
2019-04-30T01:59:55.613Z,62.35
2019-04-30T02:02:29.121Z,62.30
2019-04-30T02:05:00.883Z,62.28
2019-04-30T02:07:32.661Z,62.17
2019-04-30T02:10:04.566Z,62.32
2019-04-30T02:12:36.165Z,62.78
2019-04-30T02:15:09.465Z,62.92
2019-04-30T02:17:41.371Z,63.91
2019-04-30T02:20:13.281Z,64.21
2019-04-30T02:22:44.859Z,63.91
2019-04-30T02:25:16.737Z,64.76
2019-04-30T02:27:48.910Z,64.89
2019-04-30T02:30:21.148Z,64.60
2019-04-30T02:32:52.925Z,64.59
2019-04-30T02:35:46.359Z,64.07
2019-04-30T02:38:21.942Z,63.94
2019-04-30T02:40:54.817Z,63.92
2019-04-30T02:43:30.034Z,64.11
2019-04-30T02:46:04.763Z,64.51
2019-04-30T02:48:39.939Z,64.17
2019-04-30T02:51:14.115Z,64.24
2019-04-30T02:54:24.922Z,64.28
2019-04-30T02:57:29.933Z,64.28
2019-04-30T03:00:10.517Z,64.52
2019-04-30T03:02:42.050Z,64.26
2019-04-30T03:05:14.144Z,64.53
2019-04-30T03:07:45.765Z,64.54
2019-04-30T03:10:19.835Z,64.08
2019-04-30T03:12:51.132Z,64.16
2019-04-30T03:15:23.146Z,64.07
2019-04-30T03:18:10.885Z,64.21
2019-04-30T03:20:50.558Z,64.38
2019-04-30T03:23:22.544Z,64.69
2019-04-30T03:25:54.287Z,64.70
2019-04-30T03:28:26.263Z,64.81
2019-04-30T03:31:03.453Z,65.61
2019-04-30T03:33:32.732Z,65.95
2019-04-30T03:36:03.477Z,66.30
2019-04-30T03:38:35.310Z,66.50
2019-04-30T03:41:09.632Z,66.73
2019-04-30T03:43:40.484Z,66.81
2019-04-30T03:46:12.873Z,67.47
2019-04-30T03:48:44.460Z,67.73
2019-04-30T03:51:16.203Z,67.52
2019-04-30T03:53:50.118Z,67.47
2019-04-30T03:56:22.762Z,67.29
2019-04-30T03:58:53.269Z,67.15
2019-04-30T04:01:34.290Z,66.92
2019-04-30T04:04:20.195Z,66.29
2019-04-30T04:07:15.206Z,66.24
2019-04-30T04:09:51.628Z,66.15
2019-04-30T04:12:24.057Z,66.05
2019-04-30T04:14:55.971Z,66.28
2019-04-30T04:17:31.124Z,66.37
2019-04-30T04:20:01.991Z,66.16
2019-04-30T04:22:35.023Z,65.49
2019-04-30T04:25:12.682Z,65.36
2019-04-30T04:27:40.689Z,65.35
2019-04-30T04:30:12.293Z,65.68
2019-04-30T04:32:44.346Z,65.85
2019-04-30T04:35:16.526Z,65.53
2019-04-30T04:37:49.438Z,65.35
2019-04-30T04:40:21.530Z,64.71
2019-04-30T04:42:53.228Z,64.68
2019-04-30T04:45:24.887Z,64.49
2019-04-30T04:47:56.644Z,64.59
2019-04-30T04:50:30.316Z,64.38
2019-04-30T04:53:01.567Z,64.48
2019-04-30T04:55:33.128Z,63.93
2019-04-30T04:58:04.514Z,63.65
2019-04-30T05:00:36.226Z,63.79
2019-04-30T05:03:14.009Z,62.69
2019-04-30T05:05:45.679Z,63.05
2019-04-30T05:08:18.575Z,62.75
2019-04-30T05:10:50.327Z,63.40
2019-04-30T05:13:21.915Z,62.66
2019-04-30T05:15:53.819Z,62.58
2019-04-30T05:18:25.258Z,61.84
2019-04-30T05:20:56.781Z,60.66
2019-04-30T05:23:29.829Z,60.51
2019-04-30T05:26:02.032Z,61.69
2019-04-30T05:28:33.577Z,60.03
2019-04-30T05:31:05.008Z,59.81
2019-04-30T05:33:36.633Z,59.22
2019-04-30T05:36:09.313Z,59.41
2019-04-30T05:38:40.992Z,59.92
2019-04-30T05:41:12.551Z,60.34
2019-04-30T05:43:44.047Z,59.67
2019-04-30T05:46:34.306Z,60.16
2019-04-30T05:49:05.977Z,59.95
2019-04-30T05:51:38.812Z,60.37
2019-04-30T05:54:12.914Z,60.72
2019-04-30T05:56:44.486Z,60.80
2019-04-30T05:59:16.503Z,60.33
2019-04-30T06:01:50.712Z,59.51
2019-04-30T06:04:21.959Z,59.65
2019-04-30T06:06:53.767Z,59.79
2019-04-30T06:09:38.655Z,59.03
2019-04-30T06:12:29.224Z,58.03
2019-04-30T06:15:22.897Z,57.26
2019-04-30T06:18:00.221Z,57.38
2019-04-30T06:20:28.671Z,57.34
2019-04-30T06:23:01.548Z,57.10
2019-04-30T06:25:45.730Z,57.29
2019-04-30T06:28:06.668Z,56.12
2019-04-30T06:30:39.654Z,55.01
2019-04-30T06:33:12.611Z,55.04
2019-04-30T06:35:44.388Z,53.28
2019-04-30T06:38:16.275Z,52.55
2019-04-30T06:40:48.898Z,53.50
2019-04-30T06:43:22.741Z,53.02
2019-04-30T06:45:54.533Z,53.42
2019-04-30T06:48:26.720Z,53.96
2019-04-30T06:51:00.811Z,53.53
2019-04-30T06:53:32.502Z,53.17
2019-04-30T06:56:04.308Z,53.26
2019-04-30T06:58:36.231Z,53.21
2019-04-30T07:01:09.413Z,51.81
2019-04-30T07:03:42.454Z,52.36
2019-04-30T07:06:26.913Z,51.46
2019-04-30T07:09:13.334Z,52.78
2019-04-30T07:12:02.948Z,53.44
2019-04-30T07:14:34.920Z,51.66
2019-04-30T07:17:06.532Z,51.84
2019-04-30T07:19:53.301Z,50.98
2019-04-30T07:22:11.753Z,50.50
2019-04-30T07:24:43.652Z,50.91
2019-04-30T07:27:23.988Z,52.14
2019-04-30T07:29:52.641Z,52.17
2019-04-30T07:32:24.168Z,52.92
2019-04-30T07:34:55.914Z,54.29
2019-04-30T07:37:29.211Z,52.25
2019-04-30T07:40:00.814Z,52.55
2019-04-30T07:42:37.011Z,52.98
2019-04-30T07:45:06.882Z,54.19
2019-04-30T07:47:39.501Z,54.81
2019-04-30T07:50:12.170Z,54.02
2019-04-30T07:52:58.895Z,54.40
2019-04-30T07:55:19.623Z,54.27
2019-04-30T07:57:51.519Z,54.83
2019-04-30T08:00:23.291Z,54.63
2019-04-30T08:03:14.101Z,54.53
2019-04-30T08:05:46.600Z,54.02
2019-04-30T08:08:24.552Z,53.78
2019-04-30T08:10:51.423Z,54.42
2019-04-30T08:13:23.524Z,54.61
2019-04-30T08:15:55.417Z,54.43
2019-04-30T08:18:29.408Z,54.37
2019-04-30T08:21:01.091Z,55.64
2019-04-30T08:23:36.830Z,55.24
2019-04-30T08:26:08.692Z,55.29
2019-04-30T08:28:40.436Z,55.14
2019-04-30T08:31:12.096Z,55.96
2019-04-30T08:33:43.619Z,55.51
2019-04-30T08:36:15.591Z,55.75
2019-04-30T08:38:49.378Z,56.49
2019-04-30T08:41:21.071Z,57.97
2019-04-30T08:43:52.758Z,57.73
2019-04-30T08:46:24.281Z,59.56
2019-04-30T08:48:55.855Z,61.85
2019-04-30T08:51:30.499Z,62.51
2019-04-30T08:54:01.591Z,62.42
2019-04-30T08:56:33.599Z,61.77
2019-04-30T08:59:05.373Z,63.28
2019-04-30T09:01:38.686Z,61.83
2019-04-30T09:04:10.537Z,60.68
2019-04-30T09:06:42.517Z,60.57
2019-04-30T09:09:21.942Z,58.77
2019-04-30T09:11:55.775Z,59.46
2019-04-30T09:14:26.284Z,62.87
2019-04-30T09:16:59.575Z,64.84
2019-04-30T09:19:31.356Z,66.86
2019-04-30T09:22:03.073Z,70.00
2019-04-30T09:24:35.033Z,71.96
2019-04-30T09:27:06.597Z,73.69
2019-04-30T09:29:39.144Z,73.80
2019-04-30T09:32:13.781Z,73.83
2019-04-30T09:34:45.737Z,73.65
2019-04-30T09:37:18.707Z,75.03
2019-04-30T09:39:49.670Z,72.77
2019-04-30T09:42:21.344Z,72.80
2019-04-30T09:44:54.913Z,70.34
2019-04-30T09:47:26.955Z,67.53
2019-04-30T09:49:59.676Z,68.75
2019-04-30T09:52:31.801Z,65.24
2019-04-30T09:55:04.100Z,65.51
2019-04-30T09:57:35.708Z,61.30
2019-04-30T10:00:09.410Z,52.18
2019-04-30T10:02:42.906Z,54.24
2019-04-30T10:05:18.110Z,55.38
2019-04-30T10:07:50.013Z,52.26
2019-04-30T10:10:28.809Z,52.41
2019-04-30T10:13:03.155Z,52.36
2019-04-30T10:15:45.738Z,53.23
2019-04-30T10:18:17.523Z,49.37
2019-04-30T10:20:49.408Z,49.85
2019-04-30T10:23:20.887Z,48.97
2019-04-30T10:25:52.744Z,50.98
2019-04-30T10:28:24.984Z,51.22
2019-04-30T10:30:56.587Z,49.55
2019-04-30T10:33:28.755Z,50.44
2019-04-30T10:36:00.859Z,51.45
2019-04-30T10:38:32.741Z,53.30
2019-04-30T10:41:04.485Z,52.08
2019-04-30T10:43:35.934Z,53.17
2019-04-30T10:46:09.708Z,52.83
2019-04-30T10:48:43.421Z,50.70
2019-04-30T10:51:15.505Z,48.16
2019-04-30T10:53:48.616Z,45.34
2019-04-30T10:56:20.991Z,47.00
2019-04-30T10:58:52.821Z,47.34
2019-04-30T11:01:24.538Z,44.58
2019-04-30T11:03:56.335Z,46.25
2019-04-30T11:06:29.017Z,43.23
2019-04-30T11:09:00.786Z,45.38
2019-04-30T11:11:34.190Z,43.40
2019-04-30T11:14:05.774Z,42.19
2019-04-30T11:16:37.457Z,42.88
2019-04-30T11:19:09.591Z,44.55
2019-04-30T11:21:41.771Z,44.38
2019-04-30T11:24:13.682Z,41.82
2019-04-30T11:26:46.383Z,41.60
2019-04-30T11:29:17.576Z,42.82
2019-04-30T11:31:57.033Z,41.26
2019-04-30T11:34:28.677Z,40.63
2019-04-30T11:37:00.154Z,40.53
2019-04-30T11:39:32.063Z,38.12
2019-04-30T11:42:03.718Z,38.82
2019-04-30T11:44:35.396Z,37.99
2019-04-30T11:47:37.267Z,37.06
2019-04-30T11:50:12.333Z,38.62
2019-04-30T11:52:44.444Z,39.95
2019-04-30T11:55:16.728Z,38.04
2019-04-30T11:57:49.503Z,38.85
2019-04-30T12:00:29.555Z,40.80
2019-04-30T12:03:00.978Z,40.25
2019-04-30T12:05:32.944Z,39.49
2019-04-30T12:08:14.818Z,39.06
2019-04-30T12:10:55.963Z,38.98
2019-04-30T12:13:34.594Z,42.85
2019-04-30T12:16:08.577Z,43.60
2019-04-30T12:18:40.471Z,43.59
2019-04-30T12:21:12.047Z,43.84
2019-04-30T12:23:43.881Z,44.61
2019-04-30T12:26:15.560Z,45.17
2019-04-30T12:28:47.229Z,47.33
2019-04-30T12:31:19.162Z,47.82
2019-04-30T12:33:50.817Z,48.95
2019-04-30T12:36:23.745Z,49.48
2019-04-30T12:39:04.930Z,48.57
2019-04-30T12:41:38.975Z,48.50
2019-04-30T12:44:10.263Z,47.41
2019-04-30T12:46:42.020Z,48.94
2019-04-30T12:49:14.216Z,47.44
2019-04-30T12:51:50.664Z,44.95
2019-04-30T12:54:34.575Z,45.91
2019-04-30T12:57:11.182Z,43.89
2019-04-30T12:59:43.470Z,45.45
2019-04-30T13:02:15.390Z,47.36
2019-04-30T13:04:49.280Z,48.16
2019-04-30T13:07:21.523Z,48.75
2019-04-30T13:09:54.128Z,48.39
2019-04-30T13:12:26.520Z,46.95
2019-04-30T13:14:58.621Z,46.12
2019-04-30T13:17:30.271Z,45.69
2019-04-30T13:20:01.773Z,46.03
2019-04-30T13:22:34.841Z,45.77
2019-04-30T13:25:06.743Z,45.62
2019-04-30T13:27:41.625Z,46.15
2019-04-30T13:30:24.060Z,48.80
2019-04-30T13:33:20.920Z,48.92
2019-04-30T13:35:52.835Z,51.73
2019-04-30T13:38:29.859Z,52.72
2019-04-30T13:41:08.892Z,52.50
2019-04-30T13:44:00.944Z,53.71
2019-04-30T13:46:32.482Z,55.79
2019-04-30T13:49:04.189Z,55.26
2019-04-30T13:51:36.051Z,51.57
2019-04-30T13:54:07.742Z,51.97
2019-04-30T13:56:39.837Z,53.03
2019-04-30T13:59:12.039Z,49.39
2019-04-30T14:01:43.939Z,46.45
2019-04-30T14:04:33.559Z,47.52
2019-04-30T14:07:15.846Z,47.43
2019-04-30T14:09:47.656Z,44.71
2019-04-30T14:12:19.172Z,45.89
2019-04-30T14:14:50.858Z,44.51
2019-04-30T14:17:22.841Z,45.21
2019-04-30T14:19:54.545Z,45.45
2019-04-30T14:22:26.613Z,46.40
2019-04-30T14:24:58.324Z,48.73
2019-04-30T14:27:30.204Z,49.44
2019-04-30T14:30:01.856Z,47.35
2019-04-30T14:32:33.866Z,47.94
2019-04-30T14:35:09.093Z,48.43
2019-04-30T14:37:40.709Z,50.24
2019-04-30T14:40:13.705Z,49.89
2019-04-30T14:43:12.753Z,49.54
2019-04-30T14:46:03.362Z,49.59
2019-04-30T14:48:41.610Z,48.33
2019-04-30T14:51:13.512Z,47.41
2019-04-30T14:53:58.782Z,45.84
2019-04-30T14:56:55.482Z,48.17
2019-04-30T14:59:55.504Z,48.41
2019-04-30T15:02:31.582Z,49.53
2019-04-30T15:05:03.622Z,49.52
2019-04-30T15:07:35.527Z,49.61
2019-04-30T15:10:07.827Z,51.03
2019-04-30T15:12:39.733Z,50.02
2019-04-30T15:15:11.894Z,48.77
2019-04-30T15:17:43.917Z,50.49
2019-04-30T15:20:15.907Z,50.25
2019-04-30T15:23:19.362Z,49.99
2019-04-30T15:25:51.758Z,50.18
2019-04-30T15:28:23.491Z,50.21
2019-04-30T15:30:55.505Z,51.13
2019-04-30T15:34:03.050Z,51.46
2019-04-30T15:36:34.844Z,54.25
2019-04-30T15:39:45.539Z,59.67
2019-04-30T15:42:19.742Z,61.80
2019-04-30T15:44:51.483Z,63.66
2019-04-30T15:47:23.465Z,65.72
2019-04-30T15:49:55.192Z,66.23
2019-04-30T15:52:28.767Z,65.26
2019-04-30T15:54:59.304Z,66.64
2019-04-30T15:57:31.072Z,67.98
2019-04-30T16:00:02.932Z,68.52
2019-04-30T16:02:56.198Z,68.09
2019-04-30T16:05:40.809Z,70.80
2019-04-30T16:08:35.325Z,72.51
2019-04-30T16:11:25.901Z,66.92
2019-04-30T16:14:14.561Z,70.98
2019-04-30T16:16:52.040Z,71.67
2019-04-30T16:19:23.863Z,72.28
2019-04-30T16:21:55.614Z,72.09
2019-04-30T16:24:28.754Z,73.01
2019-04-30T16:27:00.629Z,73.70
2019-04-30T16:29:32.588Z,74.10
2019-04-30T16:32:04.307Z,73.20
2019-04-30T16:34:35.997Z,73.80
2019-04-30T16:37:07.642Z,74.16
2019-04-30T16:39:39.798Z,74.87
2019-04-30T16:42:12.558Z,71.01
2019-04-30T16:44:44.280Z,72.74
2019-04-30T16:47:17.054Z,74.05
2019-04-30T16:49:49.390Z,70.91
2019-04-30T16:52:20.959Z,70.17
2019-04-30T16:54:52.826Z,72.98
2019-04-30T16:57:24.417Z,71.65
2019-04-30T16:59:56.022Z,74.00
2019-04-30T17:02:29.848Z,73.44
2019-04-30T17:05:24.561Z,74.23
2019-04-30T17:08:06.837Z,75.19
2019-04-30T17:11:03.270Z,73.58
2019-04-30T17:13:40.240Z,73.69
2019-04-30T17:16:15.293Z,72.34
2019-04-30T17:18:49.254Z,71.58
2019-04-30T17:21:20.464Z,66.25
2019-04-30T17:23:52.461Z,65.27
2019-04-30T17:26:24.209Z,61.84
2019-04-30T17:28:55.943Z,61.38
2019-04-30T17:31:27.638Z,59.58
2019-04-30T17:33:59.231Z,60.60
2019-04-30T17:36:31.119Z,60.64
2019-04-30T17:39:03.180Z,60.54
2019-04-30T17:41:36.187Z,61.98
2019-04-30T17:44:08.852Z,61.98
2019-04-30T17:46:40.685Z,63.02
2019-04-30T17:49:13.055Z,63.47
2019-04-30T17:51:44.824Z,64.13
2019-04-30T17:54:16.811Z,64.63
2019-04-30T17:56:48.619Z,64.61
2019-04-30T17:59:20.506Z,65.43
2019-04-30T18:01:59.476Z,65.63
2019-04-30T18:04:31.067Z,65.66
2019-04-30T18:07:02.990Z,65.76
2019-04-30T18:09:34.893Z,65.77
2019-04-30T18:12:06.654Z,65.83
2019-04-30T18:14:39.584Z,65.43
2019-04-30T18:17:11.348Z,66.90
2019-04-30T18:20:01.821Z,66.85
2019-04-30T18:22:48.901Z,67.06
2019-04-30T18:25:34.408Z,66.42
2019-04-30T18:28:06.270Z,67.73
2019-04-30T18:30:39.292Z,68.08
2019-04-30T18:33:10.149Z,67.39
2019-04-30T18:35:42.432Z,67.96
2019-04-30T18:38:13.987Z,67.88
2019-04-30T18:40:45.723Z,67.24
2019-04-30T18:43:20.401Z,67.45
2019-04-30T18:45:51.482Z,67.12
2019-04-30T18:48:23.341Z,67.12
2019-04-30T18:50:55.254Z,67.10
2019-04-30T18:53:28.698Z,66.29
2019-04-30T18:56:01.458Z,65.70
2019-04-30T18:58:40.010Z,66.41
2019-04-30T19:01:09.252Z,67.20
2019-04-30T19:03:41.164Z,66.73
2019-04-30T19:06:23.695Z,67.59
2019-04-30T19:09:00.487Z,67.78
2019-04-30T19:11:42.705Z,68.87
2019-04-30T19:14:30.500Z,68.50
2019-04-30T19:17:26.969Z,69.10
2019-04-30T19:20:29.872Z,68.96
2019-04-30T19:23:01.622Z,69.76
2019-04-30T19:25:33.672Z,69.10
2019-04-30T19:28:14.012Z,68.74
2019-04-30T19:30:39.580Z,68.40
2019-04-30T19:33:11.298Z,69.29
2019-04-30T19:35:42.885Z,68.26
2019-04-30T19:38:15.051Z,68.56
2019-04-30T19:40:49.259Z,69.50
2019-04-30T19:43:20.656Z,69.50
2019-04-30T19:45:52.425Z,69.21
2019-04-30T19:48:24.083Z,69.60
2019-04-30T19:50:55.905Z,69.96
2019-04-30T19:53:27.659Z,71.08
2019-04-30T19:55:59.421Z,70.06
2019-04-30T19:58:48.127Z,70.49
2019-04-30T20:01:04.646Z,70.54
2019-04-30T20:03:36.263Z,70.54
2019-04-30T20:06:09.043Z,70.18
2019-04-30T20:08:41.796Z,70.76
2019-04-30T20:11:13.178Z,70.16
2019-04-30T20:13:44.922Z,68.91
2019-04-30T20:16:16.784Z,69.08
2019-04-30T20:18:49.111Z,68.84
2019-04-30T20:21:28.021Z,69.04
2019-04-30T20:23:55.994Z,68.86
2019-04-30T20:26:28.888Z,68.76
2019-04-30T20:29:00.673Z,68.42
2019-04-30T20:31:32.224Z,68.47
2019-04-30T20:34:04.313Z,69.04
2019-04-30T20:36:36.128Z,69.03
2019-04-30T20:39:33.794Z,68.47
2019-04-30T20:42:05.741Z,69.14
2019-04-30T20:44:38.986Z,70.23
2019-04-30T20:47:10.809Z,70.97
2019-04-30T20:49:42.477Z,71.36
2019-04-30T20:52:14.170Z,70.96
2019-04-30T20:54:48.946Z,70.84
2019-04-30T20:57:20.364Z,71.26
2019-04-30T20:59:52.198Z,72.43
2019-04-30T21:02:23.856Z,72.80
2019-04-30T21:04:55.697Z,72.80
2019-04-30T21:07:27.307Z,72.91
2019-04-30T21:10:00.446Z,73.11
2019-04-30T21:12:32.140Z,73.60
2019-04-30T21:15:05.038Z,73.77
2019-04-30T21:17:36.675Z,73.67
2019-04-30T21:20:09.824Z,73.78
2019-04-30T21:22:41.171Z,73.29
2019-04-30T21:25:14.321Z,73.70
2019-04-30T21:27:46.219Z,73.71
2019-04-30T21:30:18.095Z,73.68
2019-04-30T21:33:00.457Z,73.32
2019-04-30T21:35:34.755Z,73.28
2019-04-30T21:38:06.514Z,73.35
2019-04-30T21:40:39.427Z,73.26
2019-04-30T21:43:10.542Z,73.08
2019-04-30T21:45:42.298Z,73.34
2019-04-30T21:48:14.092Z,73.27
2019-04-30T21:50:46.123Z,72.53
2019-04-30T21:53:19.538Z,71.73
2019-04-30T21:55:51.277Z,72.76
2019-04-30T21:58:23.040Z,71.95
2019-04-30T22:01:20.391Z,72.88
2019-04-30T22:03:53.439Z,73.43
2019-04-30T22:06:25.058Z,73.57
2019-04-30T22:08:58.462Z,73.35
2019-04-30T22:11:30.046Z,73.10
2019-04-30T22:14:01.568Z,72.79
2019-04-30T22:16:34.408Z,72.60
2019-04-30T22:19:05.985Z,72.68
2019-04-30T22:21:39.450Z,72.81
2019-04-30T22:24:09.964Z,73.13
2019-04-30T22:26:41.356Z,73.17
2019-04-30T22:29:12.897Z,73.63
2019-04-30T22:31:44.426Z,73.36
2019-04-30T22:34:16.287Z,73.19
2019-04-30T22:36:49.036Z,73.01
2019-04-30T22:39:31.592Z,73.49
2019-04-30T22:42:30.101Z,74.04
2019-04-30T22:45:02.979Z,74.18
2019-04-30T22:47:34.314Z,73.72
2019-04-30T22:50:08.895Z,73.14
2019-04-30T22:52:40.391Z,73.96
2019-04-30T22:55:12.274Z,73.51
2019-04-30T22:57:44.195Z,73.96
2019-04-30T23:00:22.743Z,73.40
2019-04-30T23:02:58.177Z,73.53
2019-04-30T23:05:29.646Z,74.02
2019-04-30T23:08:01.496Z,74.19
2019-04-30T23:10:33.295Z,74.11
2019-04-30T23:13:04.904Z,74.89
2019-04-30T23:15:36.966Z,74.30
2019-04-30T23:18:20.785Z,74.06
2019-04-30T23:20:52.705Z,73.90
2019-04-30T23:23:24.693Z,74.14
2019-04-30T23:25:56.578Z,74.19
2019-04-30T23:28:28.175Z,74.03
2019-04-30T23:31:00.000Z,74.10
2019-04-30T23:33:31.553Z,73.07
2019-04-30T23:36:03.223Z,73.94
2019-04-30T23:38:34.857Z,74.15
2019-04-30T23:41:06.819Z,74.59
2019-04-30T23:43:38.251Z,73.92
2019-04-30T23:46:09.892Z,72.62
2019-04-30T23:48:41.460Z,70.62
2019-04-30T23:51:13.115Z,69.92
2019-04-30T23:53:44.699Z,68.62
2019-04-30T23:56:16.573Z,68.60
2019-04-30T23:58:48.204Z,68.17
